createdAt,value
2023-08-22T00:01:55.317Z,6.53
2023-08-22T00:04:44.452Z,7.25
2023-08-22T00:07:32.209Z,6.65
2023-08-22T00:10:21.455Z,7.40
2023-08-22T00:13:09.228Z,6.78
2023-08-22T00:16:00.660Z,6.53
2023-08-22T00:18:48.454Z,6.65
2023-08-22T00:21:36.118Z,6.90
2023-08-22T00:24:24.876Z,6.78
2023-08-22T00:27:13.960Z,6.65
2023-08-22T00:30:01.792Z,6.82
2023-08-22T00:32:49.601Z,6.97
2023-08-22T00:35:37.355Z,6.65
2023-08-22T00:38:25.015Z,5.90
2023-08-22T00:41:12.624Z,7.20
2023-08-22T00:44:01.764Z,6.53
2023-08-22T00:46:49.921Z,7.00
2023-08-22T00:49:38.008Z,6.13
2023-08-22T00:52:26.010Z,6.25
2023-08-22T00:55:14.696Z,6.82
2023-08-22T00:58:03.156Z,7.07
2023-08-22T01:00:52.197Z,7.15
2023-08-22T01:03:40.323Z,7.38
2023-08-22T01:06:35.572Z,6.50
2023-08-22T01:09:29.752Z,6.95
2023-08-22T01:12:23.776Z,6.40
2023-08-22T01:15:22.340Z,6.15
2023-08-22T01:18:14.699Z,6.65
2023-08-22T01:21:06.798Z,6.25
2023-08-22T01:23:55.881Z,6.50
2023-08-22T01:26:43.600Z,6.43
2023-08-22T01:29:37.964Z,5.57
2023-08-22T01:32:30.148Z,6.05
2023-08-22T01:35:23.319Z,6.95
2023-08-22T01:38:13.241Z,7.15
2023-08-22T01:41:04.190Z,6.35
2023-08-22T01:43:52.377Z,6.85
2023-08-22T01:46:40.050Z,7.00
2023-08-22T01:49:28.026Z,6.18
2023-08-22T01:52:15.758Z,6.97
2023-08-22T01:55:04.891Z,6.65
2023-08-22T01:57:53.991Z,7.30
2023-08-22T02:00:41.636Z,6.03
2023-08-22T02:03:29.401Z,6.57
2023-08-22T02:06:17.131Z,6.53
2023-08-22T02:09:06.385Z,6.32
2023-08-22T02:11:54.411Z,6.53
2023-08-22T02:14:43.433Z,6.18
2023-08-22T02:17:31.206Z,6.45
2023-08-22T02:20:19.753Z,6.03
2023-08-22T02:23:08.722Z,6.28
2023-08-22T02:25:56.405Z,7.45
2023-08-22T02:28:44.116Z,14.70
2023-08-22T02:31:33.246Z,6.38
2023-08-22T02:34:21.001Z,6.18
2023-08-22T02:37:08.655Z,6.10
2023-08-22T02:39:57.147Z,6.25
2023-08-22T02:42:45.982Z,6.35
2023-08-22T02:45:33.691Z,6.50
2023-08-22T02:48:22.772Z,6.65
2023-08-22T02:51:10.543Z,6.18
2023-08-22T02:53:58.222Z,7.80
2023-08-22T02:56:45.923Z,6.43
2023-08-22T02:59:33.665Z,5.75
2023-08-22T03:02:21.391Z,5.43
2023-08-22T03:05:12.952Z,6.75
2023-08-22T03:08:00.957Z,5.70
2023-08-22T03:10:48.549Z,6.30
2023-08-22T03:13:37.080Z,6.40
2023-08-22T03:16:24.818Z,6.82
2023-08-22T03:19:12.498Z,6.47
2023-08-22T03:22:01.828Z,6.07
2023-08-22T03:24:49.521Z,7.22
2023-08-22T03:27:37.396Z,6.13
2023-08-22T03:30:25.473Z,6.93
2023-08-22T03:33:13.100Z,7.25
2023-08-22T03:36:01.494Z,6.30
2023-08-22T03:38:52.452Z,6.65
2023-08-22T03:41:40.279Z,7.75
2023-08-22T03:44:28.017Z,7.03
2023-08-22T03:47:15.661Z,7.95
2023-08-22T03:50:03.450Z,7.60
2023-08-22T03:52:51.092Z,8.57
2023-08-22T03:55:40.411Z,7.28
2023-08-22T03:58:28.120Z,7.45
2023-08-22T04:01:15.912Z,7.38
2023-08-22T04:04:03.626Z,7.60
2023-08-22T04:06:51.287Z,8.48
2023-08-22T04:09:39.145Z,7.78
2023-08-22T04:12:28.346Z,8.48
2023-08-22T04:15:16.783Z,8.10
2023-08-22T04:18:04.724Z,8.43
2023-08-22T04:20:52.381Z,7.85
2023-08-22T04:23:40.096Z,9.38
2023-08-22T04:26:27.806Z,9.48
2023-08-22T04:29:17.294Z,8.75
2023-08-22T04:32:05.084Z,8.13
2023-08-22T04:34:52.817Z,9.07
2023-08-22T04:37:40.888Z,9.20
2023-08-22T04:40:28.816Z,9.48
2023-08-22T04:43:16.473Z,8.88
2023-08-22T04:46:05.512Z,8.68
2023-08-22T04:48:53.243Z,8.88
2023-08-22T04:51:40.948Z,8.77
2023-08-22T04:54:28.749Z,9.32
2023-08-22T04:57:16.434Z,11.50
2023-08-22T05:00:05.198Z,10.40
2023-08-22T05:02:56.835Z,13.73
2023-08-22T05:05:44.935Z,10.45
2023-08-22T05:08:33.088Z,11.18
2023-08-22T05:11:20.814Z,9.98
2023-08-22T05:14:08.787Z,10.07
2023-08-22T05:16:56.578Z,14.00
2023-08-22T05:19:45.762Z,8.32
2023-08-22T05:22:33.429Z,8.60
2023-08-22T05:25:21.291Z,8.95
2023-08-22T05:28:09.587Z,9.30
2023-08-22T05:30:57.564Z,8.75
2023-08-22T05:33:45.533Z,8.90
2023-08-22T05:36:36.510Z,8.60
2023-08-22T05:39:24.286Z,7.85
2023-08-22T05:42:12.043Z,8.55
2023-08-22T05:44:59.731Z,8.55
2023-08-22T05:47:47.495Z,8.65
2023-08-22T05:50:35.622Z,7.38
2023-08-22T05:53:25.248Z,7.53
2023-08-22T05:56:13.136Z,9.85
2023-08-22T05:59:01.106Z,8.20
2023-08-22T06:01:48.901Z,7.85
2023-08-22T06:04:36.771Z,8.35
2023-08-22T06:07:24.647Z,8.43
2023-08-22T06:10:13.900Z,8.25
2023-08-22T06:13:01.716Z,9.13
2023-08-22T06:15:49.776Z,7.40
2023-08-22T06:18:37.479Z,7.88
2023-08-22T06:21:25.325Z,7.95
2023-08-22T06:24:13.135Z,7.45
2023-08-22T06:27:02.171Z,8.38
2023-08-22T06:29:49.945Z,7.70
2023-08-22T06:32:37.631Z,9.57
2023-08-22T06:35:26.324Z,8.88
2023-08-22T06:38:13.953Z,8.20
2023-08-22T06:41:06.280Z,8.52
2023-08-22T06:43:55.356Z,10.20
2023-08-22T06:46:43.104Z,10.63
2023-08-22T06:49:31.144Z,9.90
2023-08-22T06:52:19.590Z,9.18
2023-08-22T06:55:08.395Z,8.20
2023-08-22T06:57:56.189Z,8.63
2023-08-22T07:00:45.721Z,8.68
2023-08-22T07:03:33.571Z,7.85
2023-08-22T07:06:21.288Z,8.32
2023-08-22T07:09:09.563Z,9.07
2023-08-22T07:11:57.289Z,9.30
2023-08-22T07:14:45.219Z,8.85
2023-08-22T07:17:34.408Z,8.70
2023-08-22T07:20:22.089Z,9.23
2023-08-22T07:23:09.989Z,9.07
2023-08-22T07:25:57.681Z,8.68
2023-08-22T07:28:45.699Z,8.35
2023-08-22T07:31:33.499Z,8.98
2023-08-22T07:34:22.729Z,9.38
2023-08-22T07:37:10.499Z,8.18
2023-08-22T07:39:58.465Z,9.70
2023-08-22T07:42:46.168Z,9.00
2023-08-22T07:45:33.882Z,9.32
2023-08-22T07:48:21.613Z,7.68
2023-08-22T07:51:11.256Z,8.82
2023-08-22T07:53:59.441Z,8.30
2023-08-22T07:56:47.227Z,7.80
2023-08-22T07:59:35.207Z,7.78
2023-08-22T08:02:23.129Z,8.48
2023-08-22T08:05:11.833Z,8.07
2023-08-22T08:08:01.015Z,8.60
2023-08-22T08:10:48.889Z,7.65
2023-08-22T08:13:37.029Z,8.48
2023-08-22T08:16:39.221Z,9.20
2023-08-22T08:19:29.109Z,9.57
2023-08-22T08:22:17.157Z,8.32
2023-08-22T08:25:07.122Z,9.45
2023-08-22T08:27:56.213Z,9.70
2023-08-22T08:30:44.166Z,10.07
2023-08-22T08:33:32.036Z,9.45
2023-08-22T08:36:20.031Z,9.40
2023-08-22T08:39:07.859Z,9.07
2023-08-22T08:42:05.226Z,8.57
2023-08-22T08:44:53.570Z,11.80
2023-08-22T08:47:41.594Z,8.95
2023-08-22T08:50:29.891Z,8.20
2023-08-22T08:53:17.577Z,9.02
2023-08-22T08:56:11.192Z,8.57
2023-08-22T08:59:00.755Z,8.55
2023-08-22T09:01:51.269Z,8.98
2023-08-22T09:04:40.805Z,8.65
2023-08-22T09:07:28.667Z,9.90
2023-08-22T09:10:34.582Z,8.75
2023-08-22T09:13:38.957Z,9.35
2023-08-22T09:19:25.844Z,8.63
2023-08-22T09:22:15.661Z,9.73
2023-08-22T09:25:05.377Z,8.73
2023-08-22T09:27:53.457Z,9.68
2023-08-22T09:30:48.751Z,9.63
2023-08-22T09:33:48.287Z,8.63
2023-08-22T09:36:36.085Z,8.55
2023-08-22T09:39:25.049Z,9.20
2023-08-22T09:42:12.976Z,9.38
2023-08-22T09:45:01.187Z,8.57
2023-08-22T09:47:53.505Z,9.63
2023-08-22T09:50:45.072Z,9.65
2023-08-22T09:53:33.908Z,9.07
2023-08-22T09:56:22.317Z,8.48
2023-08-22T09:59:10.404Z,8.68
2023-08-22T10:01:59.262Z,8.77
2023-08-22T10:04:47.662Z,8.70
2023-08-22T10:07:37.245Z,8.77
2023-08-22T10:10:25.808Z,9.00
2023-08-22T10:13:14.115Z,9.45
2023-08-22T10:16:02.209Z,9.10
2023-08-22T10:19:02.710Z,9.20
2023-08-22T10:21:50.801Z,8.75
2023-08-22T10:24:40.243Z,9.35
2023-08-22T10:27:30.137Z,9.48
2023-08-22T10:30:22.290Z,9.82
2023-08-22T10:33:24.668Z,8.98
2023-08-22T10:36:18.324Z,9.95
2023-08-22T10:39:07.082Z,9.60
2023-08-22T10:41:58.630Z,11.40
2023-08-22T10:44:50.353Z,9.80
2023-08-22T10:47:38.484Z,9.80
2023-08-22T10:50:34.703Z,11.23
2023-08-22T10:53:28.402Z,22.08
2023-08-22T10:56:25.927Z,18.50
2023-08-22T10:59:14.999Z,11.98
2023-08-22T11:02:02.871Z,10.48
2023-08-22T11:04:51.622Z,13.43
2023-08-22T11:07:41.130Z,10.10
2023-08-22T11:10:29.083Z,11.15
2023-08-22T11:13:16.702Z,10.23
2023-08-22T11:16:10.102Z,11.07
2023-08-22T11:18:58.876Z,12.23
2023-08-22T11:21:46.872Z,11.15
2023-08-22T11:24:34.904Z,10.45
2023-08-22T11:27:22.734Z,11.95
2023-08-22T11:30:12.309Z,11.07
2023-08-22T11:33:01.334Z,11.40
2023-08-22T11:35:51.982Z,10.70
2023-08-22T11:38:42.287Z,10.00
2023-08-22T11:41:30.650Z,9.82
2023-08-22T11:44:18.924Z,10.00
2023-08-22T11:47:13.954Z,10.70
2023-08-22T11:50:03.943Z,10.05
2023-08-22T11:52:54.797Z,9.70
2023-08-22T11:55:48.575Z,11.63
2023-08-22T11:58:44.597Z,13.05
2023-08-22T12:01:33.612Z,13.63
2023-08-22T12:04:21.613Z,16.95
2023-08-22T12:07:10.915Z,13.60
2023-08-22T12:09:59.946Z,12.77
2023-08-22T12:12:47.807Z,14.05
2023-08-22T12:15:35.947Z,12.95
2023-08-22T12:18:30.865Z,11.02
2023-08-22T12:21:19.640Z,11.63
2023-08-22T12:24:08.949Z,10.60
2023-08-22T12:26:56.623Z,9.57
2023-08-22T12:29:46.990Z,10.57
2023-08-22T12:32:35.373Z,11.55
2023-08-22T12:35:23.123Z,11.38
2023-08-22T12:38:11.590Z,10.15
2023-08-22T12:41:02.858Z,16.70
2023-08-22T12:43:50.625Z,10.75
2023-08-22T12:46:38.364Z,10.38
2023-08-22T12:49:26.155Z,9.15
2023-08-22T12:52:14.136Z,8.05
2023-08-22T12:55:03.718Z,8.13
2023-08-22T12:57:52.908Z,8.77
2023-08-22T13:00:40.590Z,9.40
2023-08-22T13:03:28.427Z,9.77
2023-08-22T13:06:16.192Z,8.85
2023-08-22T13:09:04.338Z,8.15
2023-08-22T13:11:52.329Z,9.40
2023-08-22T13:14:41.612Z,9.43
2023-08-22T13:17:29.995Z,7.95
2023-08-22T13:20:18.302Z,8.52
2023-08-22T13:23:08.039Z,8.48
2023-08-22T13:25:56.444Z,8.07
2023-08-22T13:28:44.125Z,7.53
2023-08-22T13:31:34.377Z,8.18
2023-08-22T13:34:22.245Z,8.85
2023-08-22T13:37:09.985Z,8.05
2023-08-22T13:39:57.624Z,8.52
2023-08-22T13:42:45.490Z,8.80
2023-08-22T13:45:33.505Z,8.50
2023-08-22T13:48:23.598Z,8.88
2023-08-22T13:51:11.564Z,10.43
2023-08-22T13:54:01.095Z,12.55
2023-08-22T13:56:48.947Z,10.18
2023-08-22T13:59:38.300Z,13.20
2023-08-22T14:02:25.942Z,10.85
2023-08-22T14:05:15.275Z,11.93
2023-08-22T14:08:02.929Z,12.55
2023-08-22T14:10:50.780Z,10.02
2023-08-22T14:13:38.472Z,10.00
2023-08-22T14:16:26.172Z,10.73
2023-08-22T14:19:14.493Z,13.10
2023-08-22T14:22:03.513Z,12.00
2023-08-22T14:24:51.383Z,10.45
2023-08-22T14:27:39.110Z,11.35
2023-08-22T14:30:27.112Z,15.38
2023-08-22T14:33:14.873Z,11.77
2023-08-22T14:36:06.757Z,10.02
2023-08-22T14:38:55.783Z,13.43
2023-08-22T14:41:43.611Z,10.52
2023-08-22T14:44:31.546Z,10.18
2023-08-22T14:47:19.304Z,9.25
2023-08-22T14:50:08.222Z,9.27
2023-08-22T14:52:55.932Z,10.18
2023-08-22T14:55:57.834Z,9.55
2023-08-22T14:58:47.558Z,10.90
2023-08-22T15:01:35.479Z,11.05
2023-08-22T15:04:26.259Z,9.70
2023-08-22T15:07:14.126Z,9.50
2023-08-22T15:10:01.802Z,11.00
2023-08-22T15:12:51.957Z,9.73
2023-08-22T15:15:39.731Z,10.10
2023-08-22T15:18:28.109Z,10.48
2023-08-22T15:24:04.137Z,9.52
2023-08-22T15:26:52.143Z,9.20
2023-08-22T15:29:41.291Z,9.52
2023-08-22T15:32:29.504Z,10.27
2023-08-22T15:35:17.227Z,9.10
2023-08-22T15:38:05.062Z,9.13
2023-08-22T15:40:53.535Z,9.82
2023-08-22T15:43:41.439Z,10.05
2023-08-22T15:46:30.792Z,9.45
2023-08-22T15:49:18.454Z,9.00
2023-08-22T15:52:07.142Z,8.35
2023-08-22T15:54:55.050Z,8.73
2023-08-22T15:57:42.792Z,9.45
2023-08-22T16:00:31.571Z,9.18
2023-08-22T16:03:20.819Z,10.13
2023-08-22T16:06:08.836Z,9.02
2023-08-22T16:08:56.498Z,9.70
2023-08-22T16:11:47.115Z,8.35
2023-08-22T16:14:34.836Z,9.70
2023-08-22T16:17:22.611Z,13.18
2023-08-22T16:20:12.949Z,14.90
2023-08-22T16:23:02.699Z,11.70
2023-08-22T16:25:50.562Z,11.50
2023-08-22T16:28:38.215Z,12.55
2023-08-22T16:31:28.452Z,10.65
2023-08-22T16:34:16.502Z,12.32
2023-08-22T16:37:05.949Z,10.95
2023-08-22T16:39:53.881Z,11.25
2023-08-22T16:42:41.637Z,11.02
2023-08-22T16:45:29.612Z,10.95
2023-08-22T16:48:17.442Z,10.32
2023-08-22T16:51:05.270Z,11.00
2023-08-22T16:53:54.458Z,12.43
2023-08-22T16:56:42.064Z,12.88
2023-08-22T16:59:29.925Z,14.80
2023-08-22T17:02:17.787Z,14.30
2023-08-22T17:05:07.073Z,14.02
2023-08-22T17:07:55.035Z,13.10
2023-08-22T17:10:44.365Z,11.55
2023-08-22T17:13:32.165Z,12.27
2023-08-22T17:16:19.850Z,15.98
2023-08-22T17:19:07.618Z,17.95
2023-08-22T17:21:55.214Z,16.92
2023-08-22T17:24:43.160Z,14.15
2023-08-22T17:27:32.292Z,15.05
2023-08-22T17:30:20.861Z,14.57
2023-08-22T17:33:08.954Z,16.63
2023-08-22T17:35:56.614Z,19.88
2023-08-22T17:38:46.016Z,16.70
2023-08-22T17:41:33.934Z,15.50
2023-08-22T17:44:23.421Z,15.85
2023-08-22T17:47:11.487Z,16.33
2023-08-22T17:49:59.234Z,25.17
2023-08-22T17:52:46.908Z,23.92
2023-08-22T17:55:35.841Z,28.63
2023-08-22T17:58:24.575Z,21.13
2023-08-22T18:01:14.005Z,18.23
2023-08-22T18:04:02.626Z,13.82
2023-08-22T18:06:50.322Z,14.30
2023-08-22T18:09:38.002Z,13.82
2023-08-22T18:12:25.741Z,16.90
2023-08-22T18:15:13.471Z,15.35
2023-08-22T18:18:02.707Z,14.65
2023-08-22T18:20:50.560Z,12.93
2023-08-22T18:23:39.230Z,13.15
2023-08-22T18:26:26.882Z,15.80
2023-08-22T18:29:14.739Z,13.52
2023-08-22T18:32:02.581Z,11.75
2023-08-22T18:34:51.679Z,12.00
2023-08-22T18:37:39.963Z,13.02
2023-08-22T18:40:27.593Z,10.98
2023-08-22T18:43:15.421Z,12.00
2023-08-22T18:46:03.096Z,11.15
2023-08-22T18:48:51.229Z,10.80
2023-08-22T18:51:40.253Z,10.95
2023-08-22T18:54:27.966Z,11.95
2023-08-22T18:57:15.672Z,11.95
2023-08-22T19:00:03.345Z,11.50
2023-08-22T19:02:51.236Z,11.63
2023-08-22T19:05:38.924Z,11.65
2023-08-22T19:08:28.525Z,11.32
2023-08-22T19:11:16.355Z,12.02
2023-08-22T19:14:04.345Z,11.65
2023-08-22T19:16:52.301Z,11.30
2023-08-22T19:19:39.906Z,10.43
2023-08-22T19:22:28.003Z,12.02
2023-08-22T19:25:17.088Z,12.48
2023-08-22T19:28:05.416Z,12.43
2023-08-22T19:30:56.730Z,14.23
2023-08-22T19:33:45.773Z,12.35
2023-08-22T19:36:34.779Z,12.13
2023-08-22T19:39:22.527Z,12.15
2023-08-22T19:42:11.775Z,12.50
2023-08-22T19:45:00.107Z,11.70
2023-08-22T19:47:48.527Z,13.23
2023-08-22T19:50:36.407Z,11.88
2023-08-22T19:53:24.133Z,11.95
2023-08-22T19:56:11.852Z,12.07
2023-08-22T19:59:00.907Z,12.52
2023-08-22T20:01:48.777Z,12.13
2023-08-22T20:04:36.642Z,12.25
2023-08-22T20:07:24.640Z,11.30
2023-08-22T20:10:12.609Z,11.88
2023-08-22T20:13:00.747Z,12.50
2023-08-22T20:15:50.300Z,12.70
2023-08-22T20:18:38.065Z,12.07
2023-08-22T20:21:26.482Z,12.05
2023-08-22T20:24:15.888Z,13.55
2023-08-22T20:27:05.452Z,12.60
2023-08-22T20:29:53.176Z,12.32
2023-08-22T20:32:42.485Z,13.27
2023-08-22T20:35:30.284Z,13.18
2023-08-22T20:38:17.997Z,12.50
2023-08-22T20:41:05.769Z,13.75
2023-08-22T20:43:53.440Z,13.05
2023-08-22T20:46:41.280Z,13.45
2023-08-22T20:49:30.346Z,13.73
2023-08-22T20:52:18.276Z,13.32
2023-08-22T20:55:06.897Z,13.13
2023-08-22T20:57:54.697Z,13.88
2023-08-22T21:00:42.454Z,13.82
2023-08-22T21:03:30.323Z,14.00
2023-08-22T21:06:19.491Z,14.25
2023-08-22T21:09:07.163Z,13.95
2023-08-22T21:12:01.376Z,13.38
2023-08-22T21:17:36.621Z,12.98
2023-08-22T21:20:24.318Z,14.48
2023-08-22T21:23:13.665Z,14.20
2023-08-22T21:26:02.248Z,13.68
2023-08-22T21:28:49.945Z,14.50
2023-08-22T21:31:38.039Z,12.98
2023-08-22T21:34:25.780Z,14.50
2023-08-22T21:37:13.450Z,14.70
2023-08-22T21:40:02.554Z,14.18
2023-08-22T21:42:50.232Z,13.18
2023-08-22T21:45:38.103Z,14.30
2023-08-22T21:48:25.825Z,14.43
2023-08-22T21:51:13.728Z,14.57
2023-08-22T21:54:01.333Z,14.50
2023-08-22T21:56:50.668Z,14.45
2023-08-22T21:59:38.392Z,14.30
2023-08-22T22:02:26.278Z,14.32
2023-08-22T22:05:14.054Z,14.32
2023-08-22T22:08:01.757Z,14.38
2023-08-22T22:10:53.306Z,15.30
2023-08-22T22:13:42.269Z,13.65
2023-08-22T22:16:42.964Z,14.48
2023-08-22T22:19:32.507Z,14.77
2023-08-22T22:22:20.294Z,15.38
2023-08-22T22:25:09.359Z,14.80
2023-08-22T22:27:57.226Z,15.32
2023-08-22T22:30:46.546Z,13.82
2023-08-22T22:33:34.224Z,14.52
2023-08-22T22:36:22.127Z,15.15
2023-08-22T22:39:10.681Z,14.98
2023-08-22T22:41:58.403Z,15.00
2023-08-22T22:44:46.893Z,15.40
2023-08-22T22:47:36.274Z,16.05
2023-08-22T22:50:24.081Z,15.90
2023-08-22T22:53:11.773Z,15.65
2023-08-22T22:55:59.748Z,16.60
2023-08-22T22:58:47.577Z,16.98
2023-08-22T23:01:35.322Z,16.55
2023-08-22T23:04:24.745Z,16.52
2023-08-22T23:07:12.935Z,17.52
2023-08-22T23:10:00.695Z,17.58
2023-08-22T23:12:49.411Z,18.27
2023-08-22T23:15:37.165Z,18.17
2023-08-22T23:18:25.047Z,18.15
2023-08-22T23:21:14.124Z,17.17
2023-08-22T23:24:02.109Z,16.83
2023-08-22T23:26:49.864Z,15.55
2023-08-22T23:29:37.781Z,16.75
2023-08-22T23:32:28.347Z,16.75
2023-08-22T23:35:16.118Z,16.45
2023-08-22T23:38:06.136Z,16.30
2023-08-22T23:40:53.889Z,15.80
2023-08-22T23:43:41.895Z,16.33
2023-08-22T23:46:29.616Z,15.32
2023-08-22T23:49:17.618Z,15.90
2023-08-22T23:52:05.873Z,16.50
2023-08-22T23:54:55.012Z,14.88
2023-08-22T23:57:42.881Z,15.32
